sensor_id;sensor_type;location;lat;lon;timestamp;temperature;humidity
11818;DHT22;5966;52.402;5.322;2022-07-29T00:01:19;15.90;99.90
11818;DHT22;5966;52.402;5.322;2022-07-29T00:03:47;15.90;99.90
11818;DHT22;5966;52.402;5.322;2022-07-29T00:06:15;15.90;99.90
11818;DHT22;5966;52.402;5.322;2022-07-29T00:08:43;15.90;99.90
11818;DHT22;5966;52.402;5.322;2022-07-29T00:11:11;15.90;99.90
11818;DHT22;5966;52.402;5.322;2022-07-29T00:13:40;15.90;99.90
11818;DHT22;5966;52.402;5.322;2022-07-29T00:16:14;15.90;99.90
11818;DHT22;5966;52.402;5.322;2022-07-29T00:18:42;15.80;99.90
11818;DHT22;5966;52.402;5.322;2022-07-29T00:21:10;15.80;99.90
11818;DHT22;5966;52.402;5.322;2022-07-29T00:23:38;15.90;99.90
11818;DHT22;5966;52.402;5.322;2022-07-29T00:26:06;15.90;99.90
11818;DHT22;5966;52.402;5.322;2022-07-29T00:28:34;15.90;99.90
11818;DHT22;5966;52.402;5.322;2022-07-29T00:31:04;15.90;99.90
11818;DHT22;5966;52.402;5.322;2022-07-29T00:33:32;15.90;99.90
11818;DHT22;5966;52.402;5.322;2022-07-29T00:36:00;15.80;99.90
11818;DHT22;5966;52.402;5.322;2022-07-29T00:38:26;15.80;99.90
11818;DHT22;5966;52.402;5.322;2022-07-29T00:40:54;15.80;99.90
11818;DHT22;5966;52.402;5.322;2022-07-29T00:43:22;15.80;99.90
11818;DHT22;5966;52.402;5.322;2022-07-29T00:45:50;15.80;99.90
11818;DHT22;5966;52.402;5.322;2022-07-29T00:48:20;15.80;99.90
11818;DHT22;5966;52.402;5.322;2022-07-29T00:50:49;15.80;99.90
11818;DHT22;5966;52.402;5.322;2022-07-29T00:53:17;15.80;99.90
11818;DHT22;5966;52.402;5.322;2022-07-29T00:55:47;15.80;99.90
11818;DHT22;5966;52.402;5.322;2022-07-29T00:58:15;15.70;99.90
11818;DHT22;5966;52.402;5.322;2022-07-29T01:00:43;15.70;99.90
11818;DHT22;5966;52.402;5.322;2022-07-29T01:03:11;15.70;99.90
11818;DHT22;5966;52.402;5.322;2022-07-29T01:05:41;15.70;99.90
11818;DHT22;5966;52.402;5.322;2022-07-29T01:08:17;15.70;99.90
11818;DHT22;5966;52.402;5.322;2022-07-29T01:10:46;15.70;99.90
11818;DHT22;5966;52.402;5.322;2022-07-29T01:13:16;15.80;99.90
11818;DHT22;5966;52.402;5.322;2022-07-29T01:15:47;15.70;99.90
11818;DHT22;5966;52.402;5.322;2022-07-29T01:18:20;15.70;99.90
11818;DHT22;5966;52.402;5.322;2022-07-29T01:21:24;15.70;99.90
11818;DHT22;5966;52.402;5.322;2022-07-29T01:24:16;15.70;99.90
11818;DHT22;5966;52.402;5.322;2022-07-29T01:26:49;15.70;99.90
11818;DHT22;5966;52.402;5.322;2022-07-29T01:29:27;15.70;99.90
11818;DHT22;5966;52.402;5.322;2022-07-29T01:32:08;15.70;99.90
11818;DHT22;5966;52.402;5.322;2022-07-29T01:34:58;15.70;99.90
11818;DHT22;5966;52.402;5.322;2022-07-29T01:37:29;15.60;99.90
11818;DHT22;5966;52.402;5.322;2022-07-29T01:40:02;15.70;99.90
11818;DHT22;5966;52.402;5.322;2022-07-29T01:42:35;15.70;99.90
11818;DHT22;5966;52.402;5.322;2022-07-29T01:45:08;15.70;99.90
11818;DHT22;5966;52.402;5.322;2022-07-29T01:47:41;15.70;99.90
11818;DHT22;5966;52.402;5.322;2022-07-29T01:50:14;15.70;99.90
11818;DHT22;5966;52.402;5.322;2022-07-29T01:52:46;15.80;99.90
11818;DHT22;5966;52.402;5.322;2022-07-29T01:55:16;15.70;99.90
11818;DHT22;5966;52.402;5.322;2022-07-29T01:57:46;15.70;99.90
11818;DHT22;5966;52.402;5.322;2022-07-29T02:00:17;15.70;99.90
11818;DHT22;5966;52.402;5.322;2022-07-29T02:02:47;15.70;99.90
11818;DHT22;5966;52.402;5.322;2022-07-29T02:05:18;15.80;99.90
11818;DHT22;5966;52.402;5.322;2022-07-29T02:07:48;15.80;99.90
11818;DHT22;5966;52.402;5.322;2022-07-29T02:10:20;15.80;99.90
11818;DHT22;5966;52.402;5.322;2022-07-29T02:12:53;15.70;99.90
11818;DHT22;5966;52.402;5.322;2022-07-29T02:15:23;15.80;99.90
11818;DHT22;5966;52.402;5.322;2022-07-29T02:17:56;15.70;99.90
11818;DHT22;5966;52.402;5.322;2022-07-29T02:20:25;15.70;99.90
11818;DHT22;5966;52.402;5.322;2022-07-29T02:22:54;15.80;99.90
11818;DHT22;5966;52.402;5.322;2022-07-29T02:25:24;15.80;99.90
11818;DHT22;5966;52.402;5.322;2022-07-29T02:28:05;15.80;99.90
11818;DHT22;5966;52.402;5.322;2022-07-29T02:30:36;15.80;99.90
11818;DHT22;5966;52.402;5.322;2022-07-29T02:33:08;15.80;99.90
11818;DHT22;5966;52.402;5.322;2022-07-29T02:35:37;15.80;99.90
11818;DHT22;5966;52.402;5.322;2022-07-29T02:38:06;15.80;99.90
11818;DHT22;5966;52.402;5.322;2022-07-29T02:40:53;15.90;99.90
11818;DHT22;5966;52.402;5.322;2022-07-29T02:43:22;15.80;99.90
11818;DHT22;5966;52.402;5.322;2022-07-29T02:45:55;15.70;99.90
11818;DHT22;5966;52.402;5.322;2022-07-29T02:48:32;15.70;99.90
11818;DHT22;5966;52.402;5.322;2022-07-29T02:51:05;15.60;99.90
11818;DHT22;5966;52.402;5.322;2022-07-29T02:53:38;15.60;99.90
11818;DHT22;5966;52.402;5.322;2022-07-29T02:56:13;15.50;99.90
11818;DHT22;5966;52.402;5.322;2022-07-29T02:58:46;15.50;99.90
11818;DHT22;5966;52.402;5.322;2022-07-29T03:01:20;15.50;99.90
11818;DHT22;5966;52.402;5.322;2022-07-29T03:03:50;15.50;99.90
11818;DHT22;5966;52.402;5.322;2022-07-29T03:06:21;15.50;99.90
11818;DHT22;5966;52.402;5.322;2022-07-29T03:09:04;15.50;99.90
11818;DHT22;5966;52.402;5.322;2022-07-29T03:11:39;15.60;99.90
11818;DHT22;5966;52.402;5.322;2022-07-29T03:14:17;15.60;99.90
11818;DHT22;5966;52.402;5.322;2022-07-29T03:16:49;15.60;99.90
11818;DHT22;5966;52.402;5.322;2022-07-29T03:19:18;15.60;99.90
11818;DHT22;5966;52.402;5.322;2022-07-29T03:21:46;15.50;99.90
11818;DHT22;5966;52.402;5.322;2022-07-29T03:24:25;15.50;99.90
11818;DHT22;5966;52.402;5.322;2022-07-29T03:26:54;15.50;99.90
11818;DHT22;5966;52.402;5.322;2022-07-29T03:29:23;15.60;99.90
11818;DHT22;5966;52.402;5.322;2022-07-29T03:32:01;15.60;99.90
11818;DHT22;5966;52.402;5.322;2022-07-29T03:34:35;15.60;99.90
11818;DHT22;5966;52.402;5.322;2022-07-29T03:37:03;15.60;99.90
11818;DHT22;5966;52.402;5.322;2022-07-29T03:39:35;15.60;99.90
11818;DHT22;5966;52.402;5.322;2022-07-29T03:42:05;15.60;99.90
11818;DHT22;5966;52.402;5.322;2022-07-29T03:44:36;15.60;99.90
11818;DHT22;5966;52.402;5.322;2022-07-29T03:47:06;15.60;99.90
11818;DHT22;5966;52.402;5.322;2022-07-29T03:49:36;15.60;99.90
11818;DHT22;5966;52.402;5.322;2022-07-29T03:52:05;15.60;99.90
11818;DHT22;5966;52.402;5.322;2022-07-29T03:54:34;15.60;99.90
11818;DHT22;5966;52.402;5.322;2022-07-29T03:57:04;15.60;99.90
11818;DHT22;5966;52.402;5.322;2022-07-29T03:59:33;15.60;99.90
11818;DHT22;5966;52.402;5.322;2022-07-29T04:02:02;15.50;99.90
11818;DHT22;5966;52.402;5.322;2022-07-29T04:04:34;15.50;99.90
11818;DHT22;5966;52.402;5.322;2022-07-29T04:07:02;15.50;99.90
11818;DHT22;5966;52.402;5.322;2022-07-29T04:09:31;15.50;99.90
11818;DHT22;5966;52.402;5.322;2022-07-29T04:11:58;15.50;99.90
11818;DHT22;5966;52.402;5.322;2022-07-29T04:14:30;15.50;99.90
11818;DHT22;5966;52.402;5.322;2022-07-29T04:16:58;15.40;99.90
11818;DHT22;5966;52.402;5.322;2022-07-29T04:19:26;15.40;99.90
11818;DHT22;5966;52.402;5.322;2022-07-29T04:21:56;15.40;99.90
11818;DHT22;5966;52.402;5.322;2022-07-29T04:24:24;15.30;99.90
11818;DHT22;5966;52.402;5.322;2022-07-29T04:26:52;15.40;99.90
11818;DHT22;5966;52.402;5.322;2022-07-29T04:29:19;15.40;99.90
11818;DHT22;5966;52.402;5.322;2022-07-29T04:31:47;15.30;99.90
11818;DHT22;5966;52.402;5.322;2022-07-29T04:34:15;15.40;99.90
11818;DHT22;5966;52.402;5.322;2022-07-29T04:36:44;15.40;99.90
11818;DHT22;5966;52.402;5.322;2022-07-29T04:39:13;15.40;99.90
11818;DHT22;5966;52.402;5.322;2022-07-29T04:41:48;15.40;99.90
11818;DHT22;5966;52.402;5.322;2022-07-29T04:44:18;15.40;99.90
11818;DHT22;5966;52.402;5.322;2022-07-29T04:46:46;15.40;99.90
11818;DHT22;5966;52.402;5.322;2022-07-29T04:49:14;15.30;99.90
11818;DHT22;5966;52.402;5.322;2022-07-29T04:51:42;15.30;99.90
11818;DHT22;5966;52.402;5.322;2022-07-29T04:54:10;15.30;99.90
11818;DHT22;5966;52.402;5.322;2022-07-29T04:56:39;15.30;99.90
11818;DHT22;5966;52.402;5.322;2022-07-29T04:59:08;15.20;99.90
11818;DHT22;5966;52.402;5.322;2022-07-29T05:01:38;15.20;99.90
11818;DHT22;5966;52.402;5.322;2022-07-29T05:04:06;15.20;99.90
11818;DHT22;5966;52.402;5.322;2022-07-29T05:06:34;15.20;99.90
11818;DHT22;5966;52.402;5.322;2022-07-29T05:09:02;15.20;99.90
11818;DHT22;5966;52.402;5.322;2022-07-29T05:11:30;15.20;99.90
11818;DHT22;5966;52.402;5.322;2022-07-29T05:13:59;15.20;99.90
11818;DHT22;5966;52.402;5.322;2022-07-29T05:16:28;15.20;99.90
11818;DHT22;5966;52.402;5.322;2022-07-29T05:18:56;15.20;99.90
11818;DHT22;5966;52.402;5.322;2022-07-29T05:21:24;15.20;99.90
11818;DHT22;5966;52.402;5.322;2022-07-29T05:23:52;15.20;99.90
11818;DHT22;5966;52.402;5.322;2022-07-29T05:26:20;15.30;99.90
11818;DHT22;5966;52.402;5.322;2022-07-29T05:28:48;15.30;99.90
11818;DHT22;5966;52.402;5.322;2022-07-29T05:31:18;15.30;99.90
11818;DHT22;5966;52.402;5.322;2022-07-29T05:33:46;15.30;99.90
11818;DHT22;5966;52.402;5.322;2022-07-29T05:36:14;15.30;99.90
11818;DHT22;5966;52.402;5.322;2022-07-29T05:38:42;15.30;99.90
11818;DHT22;5966;52.402;5.322;2022-07-29T05:41:10;15.40;99.90
11818;DHT22;5966;52.402;5.322;2022-07-29T05:43:38;15.40;99.90
11818;DHT22;5966;52.402;5.322;2022-07-29T05:46:06;15.50;99.90
11818;DHT22;5966;52.402;5.322;2022-07-29T05:48:35;15.40;99.90
11818;DHT22;5966;52.402;5.322;2022-07-29T05:51:04;15.50;99.90
11818;DHT22;5966;52.402;5.322;2022-07-29T05:53:32;15.50;99.90
11818;DHT22;5966;52.402;5.322;2022-07-29T05:56:03;15.60;99.90
11818;DHT22;5966;52.402;5.322;2022-07-29T05:58:31;15.60;99.90
11818;DHT22;5966;52.402;5.322;2022-07-29T06:00:59;15.60;99.90
11818;DHT22;5966;52.402;5.322;2022-07-29T06:03:27;15.70;99.90
11818;DHT22;5966;52.402;5.322;2022-07-29T06:05:56;15.60;99.90
11818;DHT22;5966;52.402;5.322;2022-07-29T06:08:25;15.60;99.90
11818;DHT22;5966;52.402;5.322;2022-07-29T06:10:53;15.60;99.90
11818;DHT22;5966;52.402;5.322;2022-07-29T06:13:20;15.70;99.90
11818;DHT22;5966;52.402;5.322;2022-07-29T06:15:48;15.70;99.90
11818;DHT22;5966;52.402;5.322;2022-07-29T06:18:16;15.70;99.90
11818;DHT22;5966;52.402;5.322;2022-07-29T06:20:44;15.80;99.90
11818;DHT22;5966;52.402;5.322;2022-07-29T06:23:14;15.70;99.90
11818;DHT22;5966;52.402;5.322;2022-07-29T06:25:42;15.80;99.90
11818;DHT22;5966;52.402;5.322;2022-07-29T06:28:10;15.80;99.90
11818;DHT22;5966;52.402;5.322;2022-07-29T06:30:38;15.80;99.90
11818;DHT22;5966;52.402;5.322;2022-07-29T06:33:06;15.80;99.90
11818;DHT22;5966;52.402;5.322;2022-07-29T06:35:34;15.80;99.90
11818;DHT22;5966;52.402;5.322;2022-07-29T06:38:08;15.90;99.90
11818;DHT22;5966;52.402;5.322;2022-07-29T06:40:58;15.90;99.90
11818;DHT22;5966;52.402;5.322;2022-07-29T06:43:35;15.90;99.90
11818;DHT22;5966;52.402;5.322;2022-07-29T06:46:19;16.00;99.90
11818;DHT22;5966;52.402;5.322;2022-07-29T06:48:48;16.10;99.90
11818;DHT22;5966;52.402;5.322;2022-07-29T06:51:16;16.00;99.90
11818;DHT22;5966;52.402;5.322;2022-07-29T06:53:49;16.10;99.90
11818;DHT22;5966;52.402;5.322;2022-07-29T06:56:28;16.10;99.90
11818;DHT22;5966;52.402;5.322;2022-07-29T06:58:57;16.10;99.90
11818;DHT22;5966;52.402;5.322;2022-07-29T07:01:27;16.20;99.90
11818;DHT22;5966;52.402;5.322;2022-07-29T07:03:55;16.30;99.90
11818;DHT22;5966;52.402;5.322;2022-07-29T07:06:23;16.50;99.90
11818;DHT22;5966;52.402;5.322;2022-07-29T07:08:51;16.60;99.90
11818;DHT22;5966;52.402;5.322;2022-07-29T07:11:19;16.80;99.90
11818;DHT22;5966;52.402;5.322;2022-07-29T07:13:48;16.90;99.90
11818;DHT22;5966;52.402;5.322;2022-07-29T07:16:16;17.10;99.90
11818;DHT22;5966;52.402;5.322;2022-07-29T07:18:44;17.30;99.90
11818;DHT22;5966;52.402;5.322;2022-07-29T07:21:12;17.40;99.90
11818;DHT22;5966;52.402;5.322;2022-07-29T07:23:45;17.40;99.90
11818;DHT22;5966;52.402;5.322;2022-07-29T07:26:13;17.40;99.90
11818;DHT22;5966;52.402;5.322;2022-07-29T07:28:41;17.50;99.90
11818;DHT22;5966;52.402;5.322;2022-07-29T07:31:10;17.70;99.90
11818;DHT22;5966;52.402;5.322;2022-07-29T07:33:38;17.90;99.90
11818;DHT22;5966;52.402;5.322;2022-07-29T07:36:06;18.00;99.90
11818;DHT22;5966;52.402;5.322;2022-07-29T07:38:35;18.10;99.90
11818;DHT22;5966;52.402;5.322;2022-07-29T07:41:03;18.20;99.90
11818;DHT22;5966;52.402;5.322;2022-07-29T07:43:31;18.30;99.90
11818;DHT22;5966;52.402;5.322;2022-07-29T07:45:59;18.30;99.90
11818;DHT22;5966;52.402;5.322;2022-07-29T07:48:28;18.30;99.90
11818;DHT22;5966;52.402;5.322;2022-07-29T07:50:56;18.50;99.90
11818;DHT22;5966;52.402;5.322;2022-07-29T07:53:24;18.50;99.90
11818;DHT22;5966;52.402;5.322;2022-07-29T07:55:52;18.60;99.90
11818;DHT22;5966;52.402;5.322;2022-07-29T07:58:38;18.60;99.90
11818;DHT22;5966;52.402;5.322;2022-07-29T08:01:06;18.60;99.90
11818;DHT22;5966;52.402;5.322;2022-07-29T08:03:36;18.50;99.90
11818;DHT22;5966;52.402;5.322;2022-07-29T08:06:04;18.40;99.90
11818;DHT22;5966;52.402;5.322;2022-07-29T08:08:32;18.30;99.90
11818;DHT22;5966;52.402;5.322;2022-07-29T08:11:00;18.30;99.90
11818;DHT22;5966;52.402;5.322;2022-07-29T08:13:35;18.30;99.90
11818;DHT22;5966;52.402;5.322;2022-07-29T08:16:03;18.40;99.90
11818;DHT22;5966;52.402;5.322;2022-07-29T08:18:42;18.50;99.90
11818;DHT22;5966;52.402;5.322;2022-07-29T08:21:10;18.50;99.90
11818;DHT22;5966;52.402;5.322;2022-07-29T08:23:41;18.50;99.90
11818;DHT22;5966;52.402;5.322;2022-07-29T08:26:25;18.50;99.90
11818;DHT22;5966;52.402;5.322;2022-07-29T08:28:53;18.50;99.90
11818;DHT22;5966;52.402;5.322;2022-07-29T08:31:21;18.50;99.90
11818;DHT22;5966;52.402;5.322;2022-07-29T08:33:50;18.40;99.90
11818;DHT22;5966;52.402;5.322;2022-07-29T08:36:18;18.40;99.90
11818;DHT22;5966;52.402;5.322;2022-07-29T08:38:48;18.30;99.90
11818;DHT22;5966;52.402;5.322;2022-07-29T08:41:16;18.40;99.90
11818;DHT22;5966;52.402;5.322;2022-07-29T08:43:45;18.40;99.90
11818;DHT22;5966;52.402;5.322;2022-07-29T08:46:13;18.40;99.90
11818;DHT22;5966;52.402;5.322;2022-07-29T08:48:41;18.40;99.90
11818;DHT22;5966;52.402;5.322;2022-07-29T08:51:13;18.40;99.90
11818;DHT22;5966;52.402;5.322;2022-07-29T08:53:43;18.30;99.90
11818;DHT22;5966;52.402;5.322;2022-07-29T08:56:12;18.40;99.90
11818;DHT22;5966;52.402;5.322;2022-07-29T08:58:41;18.40;99.90
11818;DHT22;5966;52.402;5.322;2022-07-29T09:01:22;18.40;99.90
11818;DHT22;5966;52.402;5.322;2022-07-29T09:04:04;18.40;99.90
11818;DHT22;5966;52.402;5.322;2022-07-29T09:06:37;18.40;99.90
11818;DHT22;5966;52.402;5.322;2022-07-29T09:09:07;18.50;99.90
11818;DHT22;5966;52.402;5.322;2022-07-29T09:11:37;18.50;99.90
11818;DHT22;5966;52.402;5.322;2022-07-29T09:14:05;18.50;99.90
11818;DHT22;5966;52.402;5.322;2022-07-29T09:16:54;18.50;99.90
11818;DHT22;5966;52.402;5.322;2022-07-29T09:19:27;18.50;99.90
11818;DHT22;5966;52.402;5.322;2022-07-29T09:21:58;18.30;99.90
11818;DHT22;5966;52.402;5.322;2022-07-29T09:24:40;18.30;99.90
11818;DHT22;5966;52.402;5.322;2022-07-29T09:27:26;18.30;99.90
11818;DHT22;5966;52.402;5.322;2022-07-29T09:29:56;18.30;99.90
11818;DHT22;5966;52.402;5.322;2022-07-29T09:32:25;18.40;99.90
11818;DHT22;5966;52.402;5.322;2022-07-29T09:35:17;18.50;99.90
11818;DHT22;5966;52.402;5.322;2022-07-29T09:37:47;18.60;99.90
11818;DHT22;5966;52.402;5.322;2022-07-29T09:40:17;18.60;99.90
11818;DHT22;5966;52.402;5.322;2022-07-29T09:42:45;18.50;99.90
11818;DHT22;5966;52.402;5.322;2022-07-29T09:45:26;18.50;99.90
11818;DHT22;5966;52.402;5.322;2022-07-29T09:47:55;18.60;99.90
11818;DHT22;5966;52.402;5.322;2022-07-29T09:50:35;18.70;99.90
11818;DHT22;5966;52.402;5.322;2022-07-29T09:53:04;18.70;99.90
11818;DHT22;5966;52.402;5.322;2022-07-29T09:55:32;18.70;99.90
11818;DHT22;5966;52.402;5.322;2022-07-29T09:58:16;18.70;99.90
11818;DHT22;5966;52.402;5.322;2022-07-29T10:00:46;18.70;99.90
11818;DHT22;5966;52.402;5.322;2022-07-29T10:03:15;18.70;99.90
11818;DHT22;5966;52.402;5.322;2022-07-29T10:05:44;18.80;99.90
11818;DHT22;5966;52.402;5.322;2022-07-29T10:08:24;18.90;99.90
11818;DHT22;5966;52.402;5.322;2022-07-29T10:11:08;19.00;99.90
11818;DHT22;5966;52.402;5.322;2022-07-29T10:13:37;19.00;99.90
11818;DHT22;5966;52.402;5.322;2022-07-29T10:16:06;19.00;99.90
11818;DHT22;5966;52.402;5.322;2022-07-29T10:18:35;19.00;99.90
11818;DHT22;5966;52.402;5.322;2022-07-29T10:21:06;19.00;99.90
11818;DHT22;5966;52.402;5.322;2022-07-29T10:23:36;18.90;99.90
11818;DHT22;5966;52.402;5.322;2022-07-29T10:26:13;19.00;99.90
11818;DHT22;5966;52.402;5.322;2022-07-29T10:28:41;19.10;99.90
11818;DHT22;5966;52.402;5.322;2022-07-29T10:31:14;19.10;99.90
11818;DHT22;5966;52.402;5.322;2022-07-29T10:33:51;19.10;99.90
11818;DHT22;5966;52.402;5.322;2022-07-29T10:36:38;19.10;99.90
11818;DHT22;5966;52.402;5.322;2022-07-29T10:39:18;19.10;99.90
11818;DHT22;5966;52.402;5.322;2022-07-29T10:42:10;19.10;99.90
11818;DHT22;5966;52.402;5.322;2022-07-29T10:44:42;19.10;99.90
11818;DHT22;5966;52.402;5.322;2022-07-29T10:47:20;19.20;99.90
11818;DHT22;5966;52.402;5.322;2022-07-29T10:49:58;19.30;99.90
11818;DHT22;5966;52.402;5.322;2022-07-29T10:52:54;19.30;99.90
11818;DHT22;5966;52.402;5.322;2022-07-29T10:55:36;19.30;99.90
11818;DHT22;5966;52.402;5.322;2022-07-29T10:58:13;19.50;99.90
11818;DHT22;5966;52.402;5.322;2022-07-29T11:01:28;19.60;99.90
11818;DHT22;5966;52.402;5.322;2022-07-29T11:04:04;19.60;99.90
11818;DHT22;5966;52.402;5.322;2022-07-29T11:07:07;19.50;99.90
11818;DHT22;5966;52.402;5.322;2022-07-29T11:09:35;19.50;99.90
11818;DHT22;5966;52.402;5.322;2022-07-29T11:15:14;19.60;99.90
11818;DHT22;5966;52.402;5.322;2022-07-29T11:18:04;19.60;99.90
11818;DHT22;5966;52.402;5.322;2022-07-29T11:20:39;19.70;99.90
11818;DHT22;5966;52.402;5.322;2022-07-29T11:23:20;19.80;99.90
11818;DHT22;5966;52.402;5.322;2022-07-29T11:26:15;19.80;99.90
11818;DHT22;5966;52.402;5.322;2022-07-29T11:28:59;19.90;99.90
11818;DHT22;5966;52.402;5.322;2022-07-29T11:31:34;19.80;99.90
11818;DHT22;5966;52.402;5.322;2022-07-29T11:34:18;19.70;99.90
11818;DHT22;5966;52.402;5.322;2022-07-29T11:40:15;20.00;99.90
11818;DHT22;5966;52.402;5.322;2022-07-29T11:42:48;20.00;99.90
11818;DHT22;5966;52.402;5.322;2022-07-29T11:45:23;20.00;99.90
11818;DHT22;5966;52.402;5.322;2022-07-29T11:48:18;20.10;99.90
11818;DHT22;5966;52.402;5.322;2022-07-29T11:50:59;20.10;99.90
11818;DHT22;5966;52.402;5.322;2022-07-29T11:53:28;20.10;99.90
11818;DHT22;5966;52.402;5.322;2022-07-29T11:55:59;20.20;99.90
11818;DHT22;5966;52.402;5.322;2022-07-29T11:58:28;20.30;99.90
11818;DHT22;5966;52.402;5.322;2022-07-29T12:00:59;20.30;99.90
11818;DHT22;5966;52.402;5.322;2022-07-29T12:03:30;20.30;99.90
11818;DHT22;5966;52.402;5.322;2022-07-29T12:06:03;20.30;99.90
11818;DHT22;5966;52.402;5.322;2022-07-29T12:08:41;20.30;99.90
11818;DHT22;5966;52.402;5.322;2022-07-29T12:11:16;20.30;99.90
11818;DHT22;5966;52.402;5.322;2022-07-29T12:13:47;20.30;99.90
11818;DHT22;5966;52.402;5.322;2022-07-29T12:16:16;20.30;99.90
11818;DHT22;5966;52.402;5.322;2022-07-29T12:18:57;20.30;99.90
11818;DHT22;5966;52.402;5.322;2022-07-29T12:21:25;20.50;99.90
11818;DHT22;5966;52.402;5.322;2022-07-29T12:23:56;20.60;99.90
11818;DHT22;5966;52.402;5.322;2022-07-29T12:26:33;20.70;99.90
11818;DHT22;5966;52.402;5.322;2022-07-29T12:29:02;20.80;99.90
11818;DHT22;5966;52.402;5.322;2022-07-29T12:31:38;20.70;99.90
11818;DHT22;5966;52.402;5.322;2022-07-29T12:34:11;20.70;99.90
11818;DHT22;5966;52.402;5.322;2022-07-29T12:36:40;20.60;99.90
11818;DHT22;5966;52.402;5.322;2022-07-29T12:39:10;20.60;99.90
11818;DHT22;5966;52.402;5.322;2022-07-29T12:41:39;20.60;99.90
11818;DHT22;5966;52.402;5.322;2022-07-29T12:44:06;20.60;99.90
11818;DHT22;5966;52.402;5.322;2022-07-29T12:46:34;20.60;99.90
11818;DHT22;5966;52.402;5.322;2022-07-29T12:49:04;20.60;99.90
11818;DHT22;5966;52.402;5.322;2022-07-29T12:51:34;20.70;99.90
11818;DHT22;5966;52.402;5.322;2022-07-29T12:54:05;20.70;99.90
11818;DHT22;5966;52.402;5.322;2022-07-29T12:56:34;20.70;99.90
11818;DHT22;5966;52.402;5.322;2022-07-29T12:59:17;20.60;99.90
11818;DHT22;5966;52.402;5.322;2022-07-29T13:01:45;20.60;99.90
11818;DHT22;5966;52.402;5.322;2022-07-29T13:04:25;20.60;99.90
11818;DHT22;5966;52.402;5.322;2022-07-29T13:07:01;20.60;99.90
11818;DHT22;5966;52.402;5.322;2022-07-29T13:09:37;20.60;99.90
11818;DHT22;5966;52.402;5.322;2022-07-29T13:12:07;20.70;99.90
11818;DHT22;5966;52.402;5.322;2022-07-29T13:14:38;20.70;99.90
11818;DHT22;5966;52.402;5.322;2022-07-29T13:17:08;20.80;99.90
11818;DHT22;5966;52.402;5.322;2022-07-29T13:19:39;20.90;99.90
11818;DHT22;5966;52.402;5.322;2022-07-29T13:22:08;21.00;99.90
11818;DHT22;5966;52.402;5.322;2022-07-29T13:24:46;21.10;99.90
11818;DHT22;5966;52.402;5.322;2022-07-29T13:27:15;21.10;99.90
11818;DHT22;5966;52.402;5.322;2022-07-29T13:29:43;21.20;99.90
11818;DHT22;5966;52.402;5.322;2022-07-29T13:32:12;21.20;99.90
11818;DHT22;5966;52.402;5.322;2022-07-29T13:34:42;21.20;99.90
11818;DHT22;5966;52.402;5.322;2022-07-29T13:37:12;21.20;99.90
11818;DHT22;5966;52.402;5.322;2022-07-29T13:39:40;21.10;99.90
11818;DHT22;5966;52.402;5.322;2022-07-29T13:42:18;21.10;99.90
11818;DHT22;5966;52.402;5.322;2022-07-29T13:44:46;21.10;99.90
11818;DHT22;5966;52.402;5.322;2022-07-29T13:47:15;21.20;99.90
11818;DHT22;5966;52.402;5.322;2022-07-29T13:49:45;21.20;99.90
11818;DHT22;5966;52.402;5.322;2022-07-29T13:52:13;21.30;99.90
11818;DHT22;5966;52.402;5.322;2022-07-29T13:54:42;21.20;99.90
11818;DHT22;5966;52.402;5.322;2022-07-29T13:57:11;21.30;99.90
11818;DHT22;5966;52.402;5.322;2022-07-29T13:59:39;21.30;99.90
11818;DHT22;5966;52.402;5.322;2022-07-29T14:02:08;21.40;99.90
11818;DHT22;5966;52.402;5.322;2022-07-29T14:04:36;21.40;99.90
11818;DHT22;5966;52.402;5.322;2022-07-29T14:07:06;21.40;99.90
11818;DHT22;5966;52.402;5.322;2022-07-29T14:09:35;21.40;99.90
11818;DHT22;5966;52.402;5.322;2022-07-29T14:12:08;21.30;99.90
11818;DHT22;5966;52.402;5.322;2022-07-29T14:14:36;21.30;99.90
11818;DHT22;5966;52.402;5.322;2022-07-29T14:17:04;21.30;99.90
11818;DHT22;5966;52.402;5.322;2022-07-29T14:19:34;21.40;99.90
11818;DHT22;5966;52.402;5.322;2022-07-29T14:22:06;21.40;99.90
11818;DHT22;5966;52.402;5.322;2022-07-29T14:24:36;21.50;99.90
11818;DHT22;5966;52.402;5.322;2022-07-29T14:27:05;21.50;99.90
11818;DHT22;5966;52.402;5.322;2022-07-29T14:29:34;21.60;99.90
11818;DHT22;5966;52.402;5.322;2022-07-29T14:32:04;21.70;99.90
11818;DHT22;5966;52.402;5.322;2022-07-29T14:34:33;21.80;99.90
11818;DHT22;5966;52.402;5.322;2022-07-29T14:37:01;21.80;99.90
11818;DHT22;5966;52.402;5.322;2022-07-29T14:39:33;22.00;99.90
11818;DHT22;5966;52.402;5.322;2022-07-29T14:42:13;22.10;99.90
11818;DHT22;5966;52.402;5.322;2022-07-29T14:44:41;22.20;99.90
11818;DHT22;5966;52.402;5.322;2022-07-29T14:47:12;22.10;99.90
11818;DHT22;5966;52.402;5.322;2022-07-29T14:49:40;22.00;99.90
11818;DHT22;5966;52.402;5.322;2022-07-29T14:52:08;21.80;99.90
11818;DHT22;5966;52.402;5.322;2022-07-29T14:54:37;21.80;99.90
11818;DHT22;5966;52.402;5.322;2022-07-29T14:57:05;21.80;99.90
11818;DHT22;5966;52.402;5.322;2022-07-29T14:59:33;21.90;99.90
11818;DHT22;5966;52.402;5.322;2022-07-29T15:02:01;22.10;99.90
11818;DHT22;5966;52.402;5.322;2022-07-29T15:04:30;22.30;99.90
11818;DHT22;5966;52.402;5.322;2022-07-29T15:06:58;22.20;99.90
11818;DHT22;5966;52.402;5.322;2022-07-29T15:09:26;22.20;99.90
11818;DHT22;5966;52.402;5.322;2022-07-29T15:11:55;22.10;99.90
11818;DHT22;5966;52.402;5.322;2022-07-29T15:14:24;22.10;99.90
11818;DHT22;5966;52.402;5.322;2022-07-29T15:16:53;22.00;99.90
11818;DHT22;5966;52.402;5.322;2022-07-29T15:19:22;21.90;99.90
11818;DHT22;5966;52.402;5.322;2022-07-29T15:21:50;21.90;99.90
11818;DHT22;5966;52.402;5.322;2022-07-29T15:24:22;22.00;99.90
11818;DHT22;5966;52.402;5.322;2022-07-29T15:26:50;22.00;99.90
11818;DHT22;5966;52.402;5.322;2022-07-29T15:29:20;22.00;99.90
11818;DHT22;5966;52.402;5.322;2022-07-29T15:31:48;21.90;99.90
11818;DHT22;5966;52.402;5.322;2022-07-29T15:34:16;21.90;99.90
11818;DHT22;5966;52.402;5.322;2022-07-29T15:36:44;21.90;99.90
11818;DHT22;5966;52.402;5.322;2022-07-29T15:39:19;21.90;99.90
11818;DHT22;5966;52.402;5.322;2022-07-29T15:41:48;21.90;99.90
11818;DHT22;5966;52.402;5.322;2022-07-29T15:44:16;21.90;99.90
11818;DHT22;5966;52.402;5.322;2022-07-29T15:46:46;21.90;99.90
11818;DHT22;5966;52.402;5.322;2022-07-29T15:49:34;21.80;99.90
11818;DHT22;5966;52.402;5.322;2022-07-29T15:52:15;21.80;99.90
11818;DHT22;5966;52.402;5.322;2022-07-29T15:54:44;21.80;99.90
11818;DHT22;5966;52.402;5.322;2022-07-29T15:57:12;21.80;99.90
11818;DHT22;5966;52.402;5.322;2022-07-29T15:59:41;21.90;99.90
11818;DHT22;5966;52.402;5.322;2022-07-29T16:02:13;21.90;99.90
11818;DHT22;5966;52.402;5.322;2022-07-29T16:04:41;22.00;99.90
11818;DHT22;5966;52.402;5.322;2022-07-29T16:07:09;22.00;99.90
11818;DHT22;5966;52.402;5.322;2022-07-29T16:09:41;22.00;99.90
11818;DHT22;5966;52.402;5.322;2022-07-29T16:12:17;22.00;99.90
11818;DHT22;5966;52.402;5.322;2022-07-29T16:14:46;22.00;99.90
11818;DHT22;5966;52.402;5.322;2022-07-29T16:17:16;21.90;99.90
11818;DHT22;5966;52.402;5.322;2022-07-29T16:19:46;22.00;99.90